Time;durP1;ratioP1;P1;durP2;ratioP2;P2;SDS_P1;SDS_P2;PMS_P1;PMS_P2;Temp;Humidity;BMP_temperature;BMP_pressure;BME280_temperature;BME280_humidity;BME280_pressure;Samples;Min_cycle;Max_cycle;Signal;HPM_P1;HPM_P2
2022/08/27 00:00:40;;;;;;;13.40;8.43;;;18.70;99.90;;;;;;5095712;28;20191;-66
2022/08/27 00:03:06;;;;;;;11.60;8.35;;;18.70;99.90;;;;;;5096989;28;20209;-66
2022/08/27 00:05:32;;;;;;;11.60;9.07;;;18.70;99.90;;;;;;5095452;28;20176;-66
2022/08/27 00:07:57;;;;;;;13.20;8.43;;;18.80;99.90;;;;;;5096617;28;20181;-66
2022/08/27 00:10:26;;;;;;;13.00;9.85;;;18.80;99.90;;;;;;5096449;28;20576;-66
2022/08/27 00:12:52;;;;;;;11.52;8.05;;;18.80;99.90;;;;;;5095151;28;20177;-66
2022/08/27 00:15:19;;;;;;;7.65;6.47;;;18.70;99.90;;;;;;5096663;28;20258;-66
2022/08/27 00:17:45;;;;;;;9.38;7.30;;;18.70;99.90;;;;;;5093880;28;20565;-66
2022/08/27 00:20:14;;;;;;;8.23;6.88;;;18.60;99.90;;;;;;5096592;28;20217;-66
2022/08/27 00:22:40;;;;;;;9.20;6.85;;;18.70;99.90;;;;;;5096490;28;20203;-66
2022/08/27 00:25:06;;;;;;;8.93;6.80;;;18.70;99.90;;;;;;5096344;28;20177;-66
2022/08/27 00:27:32;;;;;;;15.23;11.65;;;18.70;99.90;;;;;;5097535;28;20256;-66
2022/08/27 00:29:58;;;;;;;15.90;11.77;;;18.70;99.90;;;;;;5097410;28;20173;-67
2022/08/27 00:32:24;;;;;;;18.27;14.23;;;18.60;99.90;;;;;;5096361;28;20705;-66
2022/08/27 00:34:51;;;;;;;20.33;13.88;;;18.50;99.90;;;;;;5094867;28;20232;-66
2022/08/27 00:37:18;;;;;;;20.40;15.13;;;18.40;99.90;;;;;;5096498;28;20154;-66
2022/08/27 00:39:43;;;;;;;18.52;14.02;;;18.40;99.90;;;;;;5095890;28;20233;-66
2022/08/27 00:42:10;;;;;;;25.38;16.55;;;18.30;99.90;;;;;;5096395;28;20201;-67
2022/08/27 00:44:37;;;;;;;21.98;16.35;;;18.30;99.90;;;;;;5095893;28;20207;-66
2022/08/27 00:47:06;;;;;;;20.30;15.73;;;18.30;99.90;;;;;;5095925;28;20173;-66
2022/08/27 00:49:37;;;;;;;19.42;13.65;;;18.30;99.90;;;;;;5095911;28;20165;-66
2022/08/27 00:52:30;;;;;;;16.13;12.93;;;18.20;99.90;;;;;;5096260;28;20222;-66
2022/08/27 00:55:05;;;;;;;15.82;11.63;;;18.20;99.90;;;;;;5095345;28;20284;-66
2022/08/27 00:57:31;;;;;;;15.85;11.95;;;18.20;99.90;;;;;;5094614;28;20196;-66
2022/08/27 00:59:57;;;;;;;16.77;11.88;;;18.20;99.90;;;;;;5095720;28;20246;-66
2022/08/27 01:02:28;;;;;;;18.85;12.90;;;18.10;99.90;;;;;;5096105;28;20725;-66
2022/08/27 01:05:20;;;;;;;16.40;12.65;;;18.10;99.90;;;;;;5094222;28;20200;-66
2022/08/27 01:07:49;;;;;;;16.95;12.60;;;18.10;99.90;;;;;;5094335;28;20538;-66
2022/08/27 01:10:18;;;;;;;19.38;13.70;;;18.10;99.90;;;;;;5094370;28;20534;-66
2022/08/27 01:12:45;;;;;;;24.42;17.85;;;18.10;99.90;;;;;;5095657;28;20162;-66
2022/08/27 01:15:13;;;;;;;22.70;17.95;;;18.00;99.90;;;;;;5095473;28;20703;-66
2022/08/27 01:17:41;;;;;;;24.65;17.80;;;18.00;99.90;;;;;;5095688;28;20169;-66
2022/08/27 01:20:15;;;;;;;25.88;18.13;;;17.90;99.90;;;;;;5095106;28;20189;-66
2022/08/27 01:23:01;;;;;;;25.52;18.23;;;17.90;99.90;;;;;;5093821;28;20621;-66
2022/08/27 01:25:27;;;;;;;26.65;18.73;;;17.90;99.90;;;;;;5093622;28;20676;-66
2022/08/27 01:27:57;;;;;;;27.25;18.27;;;17.90;99.90;;;;;;5095745;28;20260;-66
2022/08/27 01:30:23;;;;;;;25.88;18.25;;;17.80;99.90;;;;;;5094856;28;20176;-66
2022/08/27 01:32:50;;;;;;;25.60;18.38;;;17.80;99.90;;;;;;5095130;28;20193;-66
2022/08/27 01:35:17;;;;;;;26.38;17.88;;;17.80;99.90;;;;;;5093679;28;20177;-66
2022/08/27 01:37:46;;;;;;;24.83;18.23;;;17.80;99.90;;;;;;5095188;28;20248;-66
2022/08/27 01:40:12;;;;;;;27.30;18.92;;;17.70;99.90;;;;;;5094606;28;20203;-66
2022/08/27 01:42:45;;;;;;;26.80;17.90;;;17.60;99.90;;;;;;5094805;28;20197;-66
2022/08/27 01:45:20;;;;;;;22.58;15.77;;;17.60;99.90;;;;;;5094781;28;20173;-66
2022/08/27 01:47:46;;;;;;;19.27;14.00;;;17.60;99.90;;;;;;5095005;28;20186;-66
2022/08/27 01:50:20;;;;;;;23.33;13.93;;;17.50;99.90;;;;;;5094671;28;20165;-66
2022/08/27 01:52:46;;;;;;;19.98;12.95;;;17.40;99.90;;;;;;5093275;28;20184;-66
2022/08/27 01:55:14;;;;;;;19.45;12.20;;;17.40;99.90;;;;;;5093172;28;20598;-65
2022/08/27 01:57:41;;;;;;;14.90;11.32;;;17.40;99.90;;;;;;5094926;28;20177;-65
2022/08/27 02:00:11;;;;;;;18.35;11.50;;;17.30;99.90;;;;;;5094777;28;20177;-65
2022/08/27 02:02:37;;;;;;;15.38;10.98;;;17.40;99.90;;;;;;5095095;28;20193;-66
2022/08/27 02:05:03;;;;;;;14.20;10.73;;;17.40;99.90;;;;;;5094467;28;20169;-66
2022/08/27 02:07:29;;;;;;;16.63;10.98;;;17.40;99.90;;;;;;5094746;28;20177;-65
2022/08/27 02:09:55;;;;;;;14.70;11.00;;;17.40;99.90;;;;;;5094482;28;20212;-65
2022/08/27 02:12:20;;;;;;;18.38;10.95;;;17.40;99.90;;;;;;5094299;28;20188;-66
2022/08/27 02:14:46;;;;;;;15.73;10.95;;;17.30;99.90;;;;;;5094252;28;20196;-65
2022/08/27 02:17:12;;;;;;;14.20;11.30;;;17.20;99.90;;;;;;5094326;28;20290;-65
2022/08/27 02:19:38;;;;;;;13.90;10.80;;;17.10;99.90;;;;;;5094218;28;20242;-65
2022/08/27 02:22:04;;;;;;;15.32;10.90;;;17.10;99.90;;;;;;5093041;28;20257;-65
2022/08/27 02:24:29;;;;;;;21.88;11.55;;;17.20;99.90;;;;;;5094117;28;20628;-66
2022/08/27 02:26:56;;;;;;;19.85;11.15;;;17.20;99.90;;;;;;5094294;28;20195;-65
2022/08/27 02:29:23;;;;;;;13.05;10.77;;;17.20;99.90;;;;;;5094861;28;20172;-65
2022/08/27 02:31:49;;;;;;;15.93;11.40;;;17.20;99.90;;;;;;5094533;28;20595;-65
2022/08/27 02:34:15;;;;;;;13.77;10.63;;;17.30;99.90;;;;;;5094257;28;20246;-65
2022/08/27 02:36:42;;;;;;;14.85;10.27;;;17.30;99.90;;;;;;5094328;28;20252;-65
2022/08/27 02:39:09;;;;;;;14.70;10.82;;;17.30;99.90;;;;;;5094028;28;20165;-67
2022/08/27 02:41:35;;;;;;;14.88;10.90;;;17.30;99.90;;;;;;5091759;28;20201;-67
2022/08/27 02:44:02;;;;;;;14.43;11.05;;;17.30;99.90;;;;;;5093946;28;20673;-67
2022/08/27 02:46:32;;;;;;;13.82;10.90;;;17.30;99.90;;;;;;5095185;28;20169;-67
2022/08/27 02:48:59;;;;;;;16.50;12.57;;;17.30;99.90;;;;;;5094181;28;20234;-67
2022/08/27 02:51:29;;;;;;;17.95;11.88;;;17.30;99.90;;;;;;5093891;28;20177;-67
2022/08/27 02:53:56;;;;;;;20.08;11.95;;;17.30;99.90;;;;;;5092660;28;20276;-67
2022/08/27 02:56:22;;;;;;;20.02;13.85;;;17.30;99.90;;;;;;5093729;28;20608;-66
2022/08/27 02:58:48;;;;;;;20.55;14.20;;;17.30;99.90;;;;;;5094093;28;20180;-67
2022/08/27 03:01:14;;;;;;;22.52;14.32;;;17.30;99.90;;;;;;5094262;28;20169;-66
2022/08/27 03:03:40;;;;;;;21.38;15.65;;;17.30;99.90;;;;;;5092389;28;20325;-66
2022/08/27 03:06:07;;;;;;;22.15;14.55;;;17.30;99.90;;;;;;5092682;28;20643;-66
2022/08/27 03:08:34;;;;;;;21.60;14.68;;;17.30;99.90;;;;;;5093890;28;20209;-67
2022/08/27 03:11:00;;;;;;;22.98;14.90;;;17.30;99.90;;;;;;5093655;28;20176;-67
2022/08/27 03:13:25;;;;;;;20.52;14.25;;;17.30;99.90;;;;;;5093951;28;20193;-67
2022/08/27 03:15:52;;;;;;;20.17;14.52;;;17.30;99.90;;;;;;5094810;28;20184;-67
2022/08/27 03:18:18;;;;;;;17.85;13.07;;;17.20;99.90;;;;;;5094526;28;20183;-68
2022/08/27 03:20:53;;;;;;;21.27;14.77;;;17.20;99.90;;;;;;5094653;28;20173;-67
2022/08/27 03:23:24;;;;;;;19.10;13.63;;;17.20;99.90;;;;;;5094279;28;20235;-67
2022/08/27 03:25:56;;;;;;;21.00;14.10;;;17.10;99.90;;;;;;5093686;28;20177;-67
2022/08/27 03:28:30;;;;;;;21.08;13.77;;;17.10;99.90;;;;;;5093892;28;20162;-67
2022/08/27 03:31:00;;;;;;;20.05;14.50;;;17.10;99.90;;;;;;5092249;28;20222;-67
2022/08/27 03:33:28;;;;;;;22.40;15.65;;;17.10;99.90;;;;;;5093689;28;20197;-66
2022/08/27 03:35:54;;;;;;;19.75;14.23;;;17.00;99.90;;;;;;5092111;28;20179;-67
2022/08/27 03:38:20;;;;;;;19.23;14.48;;;17.10;99.90;;;;;;5093565;28;20235;-67
2022/08/27 03:40:46;;;;;;;26.58;16.25;;;17.10;99.90;;;;;;5093390;28;20216;-66
2022/08/27 03:43:14;;;;;;;20.73;15.63;;;17.10;99.90;;;;;;5092033;28;20303;-70
2022/08/27 03:45:44;;;;;;;20.65;14.80;;;17.00;99.90;;;;;;5093566;28;20533;-67
2022/08/27 03:48:11;;;;;;;17.90;14.38;;;17.10;99.90;;;;;;5093402;28;20176;-67
2022/08/27 03:50:43;;;;;;;16.70;13.13;;;17.10;99.90;;;;;;5093483;28;20174;-67
2022/08/27 03:53:10;;;;;;;20.42;14.65;;;17.10;99.90;;;;;;5096295;28;20227;-67
2022/08/27 03:55:36;;;;;;;21.65;14.32;;;17.10;99.90;;;;;;5095495;28;20246;-66
2022/08/27 03:58:02;;;;;;;24.13;15.98;;;17.00;99.90;;;;;;5095818;28;20196;-67
2022/08/27 04:00:28;;;;;;;17.80;14.52;;;17.00;99.90;;;;;;5095699;28;20649;-67
2022/08/27 04:02:54;;;;;;;20.17;15.00;;;17.00;99.90;;;;;;5095217;28;20203;-66
2022/08/27 04:05:21;;;;;;;20.15;14.73;;;17.00;99.90;;;;;;5097273;28;20169;-67
2022/08/27 04:07:47;;;;;;;19.77;15.68;;;17.00;99.90;;;;;;5096741;28;20193;-67
2022/08/27 04:10:14;;;;;;;18.95;13.65;;;17.10;99.90;;;;;;5095738;28;20205;-67
2022/08/27 04:12:40;;;;;;;19.35;13.88;;;17.00;99.90;;;;;;5095320;28;20181;-67
2022/08/27 04:15:07;;;;;;;18.65;14.20;;;17.00;99.90;;;;;;5096793;28;20544;-67
2022/08/27 04:17:34;;;;;;;24.13;13.95;;;17.10;99.90;;;;;;5095368;28;20180;-67
2022/08/27 04:20:01;;;;;;;21.30;13.00;;;17.10;99.90;;;;;;5096443;28;20196;-67
2022/08/27 04:22:27;;;;;;;16.02;12.00;;;17.10;99.90;;;;;;5096452;28;20212;-67
2022/08/27 04:24:53;;;;;;;15.63;12.15;;;17.10;99.90;;;;;;5095429;28;20296;-67
2022/08/27 04:27:19;;;;;;;18.48;12.50;;;17.10;99.90;;;;;;5096313;28;20668;-67
2022/08/27 04:29:46;;;;;;;15.95;12.27;;;17.10;99.90;;;;;;5096713;28;20206;-67
2022/08/27 04:32:12;;;;;;;14.70;10.70;;;17.10;99.90;;;;;;5096474;28;20710;-67
2022/08/27 04:34:39;;;;;;;17.05;12.07;;;17.10;99.90;;;;;;5096494;28;20670;-67
2022/08/27 04:37:05;;;;;;;14.93;11.98;;;17.10;99.90;;;;;;5096628;28;20169;-67
2022/08/27 04:39:31;;;;;;;13.23;11.88;;;17.10;99.90;;;;;;5096468;28;20177;-67
2022/08/27 04:41:59;;;;;;;12.57;10.95;;;17.10;99.90;;;;;;5096297;28;20200;-66
2022/08/27 04:44:31;;;;;;;12.32;10.27;;;17.00;99.90;;;;;;5096222;28;20193;-67
2022/08/27 04:47:01;;;;;;;11.50;9.32;;;17.00;99.90;;;;;;5096898;28;20153;-65
2022/08/27 04:49:28;;;;;;;12.57;9.43;;;17.00;99.90;;;;;;5094715;28;20226;-65
2022/08/27 04:51:54;;;;;;;12.07;9.50;;;17.00;99.90;;;;;;5095925;28;20200;-65
2022/08/27 04:54:20;;;;;;;11.80;8.93;;;17.00;99.90;;;;;;5095679;28;20603;-65
2022/08/27 04:56:46;;;;;;;14.77;9.90;;;17.00;99.90;;;;;;5095476;28;20161;-65
2022/08/27 04:59:12;;;;;;;9.80;8.70;;;17.00;99.90;;;;;;5095852;28;20538;-65
2022/08/27 05:01:39;;;;;;;13.80;8.52;;;17.00;99.90;;;;;;5094339;28;20208;-65
2022/08/27 05:04:06;;;;;;;13.55;9.77;;;16.90;99.90;;;;;;5094901;28;20189;-65
2022/08/27 05:06:33;;;;;;;11.13;9.25;;;16.90;99.90;;;;;;5095661;28;20176;-65
2022/08/27 05:08:59;;;;;;;13.68;9.80;;;16.90;99.90;;;;;;5094211;28;20170;-65
2022/08/27 05:11:30;;;;;;;12.73;10.68;;;16.90;99.90;;;;;;5095561;28;20169;-65
2022/08/27 05:13:57;;;;;;;13.07;9.88;;;16.80;99.90;;;;;;5095776;28;20585;-65
2022/08/27 05:16:24;;;;;;;13.90;10.07;;;16.90;99.90;;;;;;5096833;28;20252;-65
2022/08/27 05:18:51;;;;;;;13.07;10.45;;;16.90;99.90;;;;;;5096915;28;20185;-65
2022/08/27 05:21:24;;;;;;;13.93;9.05;;;16.90;99.90;;;;;;5096787;28;20165;-65
2022/08/27 05:23:51;;;;;;;14.45;9.52;;;16.90;99.90;;;;;;5095250;28;20738;-65
2022/08/27 05:26:17;;;;;;;13.48;9.70;;;16.90;99.90;;;;;;5094907;28;20547;-65
2022/08/27 05:28:43;;;;;;;11.23;8.40;;;16.90;99.90;;;;;;5093776;28;20178;-65
2022/08/27 05:31:11;;;;;;;10.88;8.65;;;17.00;99.90;;;;;;5094951;28;20169;-65
2022/08/27 05:33:38;;;;;;;8.88;7.68;;;16.90;99.90;;;;;;5094870;28;20196;-65
2022/08/27 05:36:05;;;;;;;12.27;8.02;;;16.90;99.90;;;;;;5094888;28;20173;-65
2022/08/27 05:38:31;;;;;;;10.43;7.25;;;16.90;99.90;;;;;;5093609;28;20185;-65
2022/08/27 05:41:13;;;;;;;8.38;7.22;;;16.90;99.90;;;;;;5093285;28;20220;-65
2022/08/27 05:43:40;;;;;;;12.35;8.05;;;16.90;99.90;;;;;;5093340;28;20241;-65
2022/08/27 05:46:10;;;;;;;9.32;7.50;;;16.80;99.90;;;;;;5094785;28;20177;-65
2022/08/27 05:48:38;;;;;;;9.80;7.57;;;16.80;99.90;;;;;;5094910;28;20168;-65
2022/08/27 05:51:14;;;;;;;12.35;7.82;;;16.80;99.90;;;;;;5095176;28;20170;-65
2022/08/27 05:53:40;;;;;;;12.98;9.00;;;16.80;99.90;;;;;;5094569;28;20200;-65
2022/08/27 05:56:21;;;;;;;14.18;7.90;;;16.70;99.90;;;;;;5094213;28;20177;-65
2022/08/27 06:01:46;;;;;;;11.38;8.27;;;16.70;99.90;;;;;;5094912;28;20644;-67
2022/08/27 06:04:13;;;;;;;9.65;7.78;;;16.80;99.90;;;;;;5094637;28;20280;-67
2022/08/27 06:06:40;;;;;;;14.75;8.35;;;16.80;99.90;;;;;;5093385;28;20173;-68
2022/08/27 06:09:09;;;;;;;11.80;7.72;;;16.80;99.90;;;;;;5094452;28;20189;-68
2022/08/27 06:11:35;;;;;;;12.23;7.15;;;16.80;99.90;;;;;;5094694;28;20534;-68
2022/08/27 06:14:01;;;;;;;9.52;6.32;;;16.80;99.90;;;;;;5094944;28;20201;-68
2022/08/27 06:16:27;;;;;;;14.88;7.57;;;16.80;99.90;;;;;;5093498;28;20260;-68
2022/08/27 06:18:53;;;;;;;12.82;7.60;;;16.80;99.90;;;;;;5093259;28;20224;-69
2022/08/27 06:21:21;;;;;;;12.93;7.32;;;16.80;99.90;;;;;;5094266;28;20169;-69
2022/08/27 06:23:47;;;;;;;11.02;6.82;;;16.80;99.90;;;;;;5094244;28;20564;-69
2022/08/27 06:26:16;;;;;;;7.90;6.45;;;16.80;99.90;;;;;;5094320;28;20188;-69
2022/08/27 06:28:42;;;;;;;11.98;7.18;;;16.90;99.90;;;;;;5092958;28;20173;-69
2022/08/27 06:31:21;;;;;;;10.70;6.80;;;16.90;99.90;;;;;;5094052;28;20169;-69
2022/08/27 06:33:49;;;;;;;13.15;6.35;;;16.90;99.90;;;;;;5094271;28;20197;-69
2022/08/27 06:36:18;;;;;;;10.20;7.05;;;16.90;99.90;;;;;;5093933;28;20173;-69
2022/08/27 06:38:46;;;;;;;9.25;5.95;;;16.90;99.90;;;;;;5092660;28;20226;-68
2022/08/27 06:41:14;;;;;;;8.43;6.82;;;16.90;99.90;;;;;;5093741;28;20203;-68
2022/08/27 06:43:41;;;;;;;11.55;7.32;;;16.90;99.90;;;;;;5094026;28;20273;-68
2022/08/27 06:46:10;;;;;;;11.35;7.38;;;16.90;99.90;;;;;;5092625;28;20177;-69
2022/08/27 06:48:36;;;;;;;14.50;7.65;;;16.90;99.90;;;;;;5093845;28;20161;-68
2022/08/27 06:51:18;;;;;;;11.38;7.70;;;16.90;99.90;;;;;;5093806;28;20165;-68
2022/08/27 06:53:46;;;;;;;9.82;6.47;;;16.90;99.90;;;;;;5093874;28;20274;-68
2022/08/27 06:56:12;;;;;;;10.98;7.40;;;16.90;99.90;;;;;;5093700;28;20187;-68
2022/08/27 06:58:39;;;;;;;10.43;6.18;;;16.90;99.90;;;;;;5093721;28;20173;-68
2022/08/27 07:01:16;;;;;;;8.32;5.60;;;17.00;99.90;;;;;;5092533;28;20187;-68
2022/08/27 07:03:43;;;;;;;8.88;5.38;;;17.00;99.90;;;;;;5093685;28;20201;-68
2022/08/27 07:06:11;;;;;;;9.52;5.00;;;17.00;99.90;;;;;;5093562;28;20236;-69
2022/08/27 07:08:38;;;;;;;8.63;4.32;;;17.00;99.90;;;;;;5093864;28;20646;-67
2022/08/27 07:11:06;;;;;;;9.07;4.50;;;17.10;99.90;;;;;;5092325;28;20177;-68
2022/08/27 07:13:32;;;;;;;8.48;3.85;;;17.10;99.90;;;;;;5093694;28;20605;-68
2022/08/27 07:15:57;;;;;;;8.30;4.90;;;17.10;99.90;;;;;;5093638;28;20177;-68
2022/08/27 07:18:24;;;;;;;6.55;4.05;;;17.20;99.90;;;;;;5093183;28;20173;-68
2022/08/27 07:20:53;;;;;;;12.75;4.57;;;17.20;99.90;;;;;;5093379;28;20530;-68
2022/08/27 07:23:20;;;;;;;11.63;4.78;;;17.20;99.90;;;;;;5093249;28;20201;-68
2022/08/27 07:25:45;;;;;;;9.68;5.28;;;17.30;99.90;;;;;;5092020;28;20264;-71
2022/08/27 07:28:11;;;;;;;11.15;4.90;;;17.30;99.90;;;;;;5096570;28;20201;-68
2022/08/27 07:30:37;;;;;;;11.98;5.13;;;17.30;99.90;;;;;;5097334;28;20179;-68
2022/08/27 07:33:03;;;;;;;6.43;4.95;;;17.30;99.90;;;;;;5097218;28;20185;-68
2022/08/27 07:35:30;;;;;;;10.70;5.18;;;17.20;99.90;;;;;;5095785;28;20216;-68
2022/08/27 07:37:56;;;;;;;10.23;5.72;;;17.30;99.90;;;;;;5097288;28;20169;-68
2022/08/27 07:40:23;;;;;;;9.43;4.95;;;17.20;99.90;;;;;;5097139;28;20197;-68
2022/08/27 07:45:34;;;;;;;7.95;4.45;;;17.30;99.90;;;;;;5097334;28;20239;-68
2022/08/27 07:47:59;;;;;;;7.07;4.57;;;17.40;99.90;;;;;;5095910;28;20161;-67
2022/08/27 07:50:25;;;;;;;9.30;4.78;;;17.40;99.90;;;;;;5097010;28;20173;-68
2022/08/27 07:52:52;;;;;;;7.40;4.75;;;17.40;99.90;;;;;;5096844;28;20181;-68
2022/08/27 07:55:18;;;;;;;7.93;5.07;;;17.50;99.90;;;;;;5095437;28;20191;-68
2022/08/27 07:57:46;;;;;;;9.02;4.97;;;17.50;99.90;;;;;;5096866;28;20753;-70
2022/08/27 08:00:13;;;;;;;8.55;4.60;;;17.50;99.90;;;;;;5096858;28;20637;-68
2022/08/27 08:02:41;;;;;;;5.65;4.30;;;17.50;99.90;;;;;;5096686;28;20205;-68
2022/08/27 08:05:08;;;;;;;8.18;4.45;;;17.60;99.90;;;;;;5095896;28;20211;-68
2022/08/27 08:07:37;;;;;;;8.43;4.80;;;17.60;99.90;;;;;;5095502;28;20173;-68
2022/08/27 08:10:11;;;;;;;5.72;3.63;;;17.70;99.90;;;;;;5097020;28;20548;-68
2022/08/27 08:12:43;;;;;;;6.40;3.60;;;17.70;99.90;;;;;;5096619;28;20634;-69
2022/08/27 08:15:11;;;;;;;4.90;3.13;;;17.80;99.90;;;;;;5095317;28;20548;-69
2022/08/27 08:17:37;;;;;;;7.63;4.50;;;17.90;99.90;;;;;;5096516;28;20169;-69
2022/08/27 08:20:06;;;;;;;12.25;5.40;;;18.00;99.90;;;;;;5096368;28;20197;-70
2022/08/27 08:22:32;;;;;;;10.98;5.25;;;18.10;99.90;;;;;;5096585;28;20322;-69
2022/08/27 08:24:58;;;;;;;7.93;3.50;;;18.10;99.90;;;;;;5096334;28;20223;-69
2022/08/27 08:27:24;;;;;;;9.68;3.35;;;18.10;99.90;;;;;;5096090;28;20174;-69
2022/08/27 08:29:50;;;;;;;6.60;3.20;;;18.10;99.90;;;;;;5096337;28;20226;-68
2022/08/27 08:32:16;;;;;;;7.15;3.38;;;18.10;99.90;;;;;;5096550;28;20165;-68
2022/08/27 08:34:43;;;;;;;7.97;3.40;;;18.10;99.90;;;;;;5096459;28;20311;-68
2022/08/27 08:37:10;;;;;;;5.68;2.95;;;18.20;99.90;;;;;;5096500;28;20161;-68
2022/08/27 08:39:36;;;;;;;2.97;2.45;;;18.20;99.90;;;;;;5093951;28;20192;-68
2022/08/27 08:42:05;;;;;;;6.80;3.33;;;18.30;99.90;;;;;;5095690;28;20193;-68
2022/08/27 08:44:39;;;;;;;6.20;2.78;;;18.30;99.90;;;;;;5096050;28;20603;-68
2022/08/27 08:47:05;;;;;;;5.10;2.75;;;18.40;99.90;;;;;;5096162;28;20165;-68
2022/08/27 08:50:05;;;;;;;4.80;2.42;;;18.40;99.90;;;;;;5094855;28;20242;-69
2022/08/27 08:52:33;;;;;;;5.55;2.55;;;18.50;99.90;;;;;;5096659;28;20165;-68
2022/08/27 08:55:22;;;;;;;6.00;2.90;;;18.50;99.90;;;;;;5095753;28;20205;-68
2022/08/27 08:58:11;;;;;;;4.88;3.13;;;18.60;99.90;;;;;;5075247;28;20189;-68
2022/08/27 09:00:39;;;;;;;5.85;2.97;;;18.60;99.90;;;;;;5094569;28;20204;-68
2022/08/27 09:03:05;;;;;;;6.22;3.10;;;18.50;99.90;;;;;;5094292;28;20213;-68
2022/08/27 09:05:31;;;;;;;4.15;2.55;;;18.50;99.90;;;;;;5095716;28;20169;-68
2022/08/27 09:08:27;;;;;;;9.85;3.33;;;18.50;99.90;;;;;;5095787;28;20207;-68
2022/08/27 09:11:08;;;;;;;3.90;2.70;;;18.50;99.90;;;;;;5086237;28;20209;-68
2022/08/27 09:13:48;;;;;;;7.78;2.72;;;18.50;99.90;;;;;;5094315;28;20203;-68
2022/08/27 09:16:14;;;;;;;8.70;3.42;;;18.60;99.90;;;;;;5096052;28;20165;-69
2022/08/27 09:18:41;;;;;;;7.03;3.00;;;18.50;99.90;;;;;;5095333;28;20556;-68
2022/08/27 09:21:32;;;;;;;5.50;2.80;;;18.50;99.90;;;;;;5094297;28;20173;-68
2022/08/27 09:24:02;;;;;;;7.53;2.90;;;18.40;99.90;;;;;;5095673;28;20189;-68
2022/08/27 09:26:30;;;;;;;6.63;2.80;;;18.40;99.90;;;;;;5093982;28;20185;-68
2022/08/27 09:29:18;;;;;;;3.92;2.30;;;18.40;99.90;;;;;;5095439;28;20579;-68
2022/08/27 09:32:06;;;;;;;6.18;3.00;;;18.40;99.90;;;;;;5096266;28;20181;-68
2022/08/27 09:34:40;;;;;;;4.53;2.80;;;18.40;99.90;;;;;;5096183;28;20250;-69
2022/08/27 09:37:16;;;;;;;2.95;2.53;;;18.50;99.90;;;;;;5094030;28;20247;-68
2022/08/27 09:39:55;;;;;;;5.32;2.97;;;18.50;99.90;;;;;;5095390;28;20214;-67
2022/08/27 09:42:33;;;;;;;6.05;3.10;;;18.50;99.90;;;;;;5094873;28;20733;-68
2022/08/27 09:45:00;;;;;;;4.22;2.70;;;18.50;99.90;;;;;;5094972;28;20189;-68
2022/08/27 09:47:26;;;;;;;7.88;3.42;;;18.50;99.90;;;;;;5094350;28;20165;-68
2022/08/27 09:50:05;;;;;;;5.65;3.38;;;18.50;99.90;;;;;;5095477;28;20637;-67
2022/08/27 09:52:44;;;;;;;9.10;3.00;;;18.40;99.90;;;;;;5097154;28;20179;-68
2022/08/27 09:55:10;;;;;;;8.10;3.50;;;18.50;99.90;;;;;;5096300;28;20711;-68
2022/08/27 09:57:40;;;;;;;9.65;3.63;;;18.50;99.90;;;;;;5096231;28;20227;-69
2022/08/27 10:00:13;;;;;;;5.05;2.90;;;18.60;99.90;;;;;;5095818;28;20165;-68
2022/08/27 10:02:52;;;;;;;3.45;2.60;;;18.70;99.90;;;;;;5095208;28;20188;-68
2022/08/27 10:05:36;;;;;;;10.13;3.30;;;18.70;99.90;;;;;;5095348;28;20165;-68
2022/08/27 10:08:11;;;;;;;7.35;3.03;;;18.90;99.90;;;;;;5093655;28;20574;-68
2022/08/27 10:10:51;;;;;;;5.28;2.60;;;19.00;99.90;;;;;;5095549;28;20161;-68
2022/08/27 10:13:26;;;;;;;3.97;2.63;;;19.20;99.90;;;;;;5095233;28;20669;-67
2022/08/27 10:15:58;;;;;;;8.20;2.97;;;19.20;99.90;;;;;;5095474;28;20188;-67
2022/08/27 10:18:46;;;;;;;7.80;3.47;;;19.30;99.90;;;;;;5094262;28;20162;-68
2022/08/27 10:22:07;;;;;;;7.85;2.80;;;19.30;99.90;;;;;;5093096;28;20185;-66
2022/08/27 10:24:47;;;;;;;4.57;2.63;;;19.30;99.90;;;;;;5069717;28;20707;-66
2022/08/27 10:27:31;;;;;;;2.60;2.10;;;19.20;99.90;;;;;;5093581;28;20309;-70
2022/08/27 10:30:17;;;;;;;6.13;2.70;;;19.10;99.90;;;;;;5094657;28;20221;-66
2022/08/27 10:32:46;;;;;;;5.35;2.35;;;19.10;99.90;;;;;;5094397;28;20157;-66
2022/08/27 10:35:18;;;;;;;4.93;2.55;;;19.00;99.90;;;;;;5092834;28;20271;-66
2022/08/27 10:37:58;;;;;;;4.32;2.95;;;19.00;99.90;;;;;;5092815;28;20650;-66
2022/08/27 10:40:53;;;;;;;5.40;2.55;;;19.00;99.90;;;;;;5093911;28;20180;-65
2022/08/27 10:43:46;;;;;;;6.45;2.65;;;19.00;99.90;;;;;;5093752;28;20204;-65
2022/08/27 10:46:31;;;;;;;6.38;2.40;;;19.10;99.90;;;;;;5092597;28;20165;-65
2022/08/27 10:49:03;;;;;;;2.80;2.08;;;19.10;99.90;;;;;;5094061;28;20537;-65
2022/08/27 10:51:33;;;;;;;4.97;2.25;;;19.10;99.90;;;;;;5094574;28;20717;-65
2022/08/27 10:54:10;;;;;;;5.45;2.33;;;19.10;99.90;;;;;;5094374;28;20279;-65
2022/08/27 10:56:55;;;;;;;5.03;2.53;;;19.10;99.90;;;;;;5093542;28;20164;-68
2022/08/27 10:59:39;;;;;;;5.93;2.70;;;19.10;99.90;;;;;;5093908;28;20236;-65
2022/08/27 11:02:07;;;;;;;5.13;2.47;;;19.10;99.90;;;;;;5095341;28;20196;-65
2022/08/27 11:04:40;;;;;;;4.85;2.75;;;19.10;99.90;;;;;;5097942;28;20235;-65
2022/08/27 11:07:25;;;;;;;9.60;3.20;;;19.10;99.90;;;;;;5097996;28;20173;-65
2022/08/27 11:10:18;;;;;;;4.65;2.75;;;19.10;99.90;;;;;;5098473;28;20154;-65
2022/08/27 11:12:48;;;;;;;4.65;2.42;;;19.10;99.90;;;;;;5097861;28;20157;-66
2022/08/27 11:15:23;;;;;;;3.70;2.28;;;19.10;99.90;;;;;;5098081;28;20173;-65
2022/08/27 11:17:56;;;;;;;5.30;2.17;;;19.10;99.90;;;;;;5097664;28;20148;-65
2022/08/27 11:20:35;;;;;;;5.40;2.17;;;19.20;99.90;;;;;;5097796;28;20543;-65
2022/08/27 11:23:11;;;;;;;4.63;2.65;;;19.20;99.90;;;;;;5097835;28;20675;-65
2022/08/27 11:25:56;;;;;;;3.85;2.80;;;19.30;99.90;;;;;;5109969;28;20263;-65
2022/08/27 11:28:30;;;;;;;5.43;2.40;;;19.50;99.90;;;;;;5117758;28;20516;-65
2022/08/27 11:31:11;;;;;;;4.28;2.30;;;19.60;99.90;;;;;;5118245;28;20161;-65
2022/08/27 11:33:58;;;;;;;4.90;2.65;;;19.80;99.90;;;;;;5117805;28;20192;-65
2022/08/27 11:36:33;;;;;;;4.97;2.60;;;19.90;99.90;;;;;;5118003;28;20156;-65
2022/08/27 11:39:03;;;;;;;5.60;2.30;;;20.10;99.90;;;;;;5117988;28;20244;-66
2022/08/27 11:41:55;;;;;;;2.45;2.00;;;20.30;99.90;;;;;;5117680;28;20225;-65
2022/08/27 11:44:24;;;;;;;5.63;2.15;;;20.60;99.90;;;;;;5116513;28;20222;-65
2022/08/27 11:46:55;;;;;;;7.03;2.78;;;20.80;99.90;;;;;;5119504;28;20168;-65
2022/08/27 11:49:34;;;;;;;5.55;2.30;;;21.00;99.90;;;;;;5119502;28;20164;-65
2022/08/27 11:52:08;;;;;;;6.03;2.25;;;21.10;99.90;;;;;;5118738;28;20234;-65
2022/08/27 11:55:11;;;;;;;9.82;2.60;;;21.20;99.90;;;;;;5117502;28;20207;-69
2022/08/27 11:57:37;;;;;;;4.60;2.35;;;21.10;99.90;;;;;;5117061;28;20211;-65
2022/08/27 12:00:28;;;;;;;5.43;2.13;;;21.00;99.90;;;;;;5118563;28;20176;-69
2022/08/27 12:03:01;;;;;;;6.60;2.30;;;21.00;99.90;;;;;;5116017;28;20196;-64
2022/08/27 12:05:39;;;;;;;5.10;2.65;;;21.00;99.90;;;;;;5117182;28;20168;-63
2022/08/27 12:08:26;;;;;;;6.45;2.22;;;20.90;99.90;;;;;;5117902;28;20628;-65
2022/08/27 12:11:09;;;;;;;7.97;2.38;;;20.80;99.90;;;;;;5117499;28;20244;-67
2022/08/27 12:14:15;;;;;;;4.32;2.10;;;20.80;99.90;;;;;;5097178;28;20216;-66
2022/08/27 12:17:05;;;;;;;4.15;2.45;;;20.90;99.90;;;;;;5095481;28;20246;-66
2022/08/27 12:19:48;;;;;;;6.00;2.38;;;20.90;99.90;;;;;;5096666;28;20193;-66
2022/08/27 12:22:20;;;;;;;4.32;2.20;;;20.80;99.90;;;;;;5096176;28;20254;-66
2022/08/27 12:24:54;;;;;;;4.05;1.92;;;20.80;99.90;;;;;;5100185;28;20283;-66
2022/08/27 12:27:20;;;;;;;9.98;2.28;;;20.90;99.90;;;;;;5116541;27;20164;-66
2022/08/27 12:30:20;;;;;;;4.38;2.30;;;20.90;99.90;;;;;;5117358;28;20177;-67
2022/08/27 12:32:50;;;;;;;4.07;2.45;;;20.90;99.90;;;;;;5116944;28;20194;-65
2022/08/27 12:35:19;;;;;;;4.78;2.22;;;20.90;99.90;;;;;;5115325;28;20179;-65
2022/08/27 12:38:06;;;;;;;3.85;2.30;;;20.90;99.90;;;;;;5116664;28;20524;-65
2022/08/27 12:40:38;;;;;;;6.18;2.20;;;20.90;99.90;;;;;;5116518;28;20188;-65
2022/08/27 12:43:33;;;;;;;4.40;2.10;;;21.00;99.90;;;;;;5116049;28;20204;-65
2022/08/27 12:46:15;;;;;;;3.08;2.05;;;21.00;99.90;;;;;;5117492;28;20206;-65
2022/08/27 12:48:50;;;;;;;5.63;2.55;;;21.10;99.90;;;;;;5116919;28;20191;-65
2022/08/27 12:51:34;;;;;;;5.85;2.28;;;21.20;99.90;;;;;;5116715;28;20205;-65
2022/08/27 12:54:18;;;;;;;4.75;2.00;;;21.20;99.90;;;;;;5116420;28;20523;-66
2022/08/27 12:56:51;;;;;;;4.95;2.58;;;21.30;99.90;;;;;;5116223;28;20187;-66
2022/08/27 12:59:52;;;;;;;6.13;2.05;;;21.30;99.90;;;;;;5116095;28;20210;-66
2022/08/27 13:02:27;;;;;;;5.93;2.92;;;21.20;99.90;;;;;;5106604;27;20222;-66
2022/08/27 13:04:53;;;;;;;4.75;2.42;;;21.20;99.90;;;;;;5115999;28;20282;-66